Time;durP1;ratioP1;P1;durP2;ratioP2;P2;SDS_P1;SDS_P2;PMS_P1;PMS_P2;Temp;Humidity;BMP_temperature;BMP_pressure;BME280_temperature;BME280_humidity;BME280_pressure;Samples;Min_cycle;Max_cycle;Signal;HPM_P1;HPM_P2
2021/03/20 00:01:16;;;;;;;8.38;7.58;;;;;;;8.32;58.95;101721.47;1736945;82;21212;-44
2021/03/20 00:03:44;;;;;;;9.05;8.15;;;;;;;8.22;58.78;101714.06;1659630;84;21278;-47
2021/03/20 00:06:12;;;;;;;9.53;8.63;;;;;;;8.12;58.87;101717.04;1659262;86;21716;-49
2021/03/20 00:08:43;;;;;;;8.98;8.08;;;;;;;8.05;59.15;101714.43;1658228;86;21648;-47
2021/03/20 00:11:12;;;;;;;8.80;8.00;;;;;;;7.99;59.14;101720.47;1656648;85;21180;-41
2021/03/20 00:13:43;;;;;;;10.88;7.20;;;;;;;7.93;59.47;101720.41;1645250;86;21244;-48
2021/03/20 00:16:11;;;;;;;8.75;7.95;;;;;;;7.90;59.38;101715.23;1671488;84;21233;-47
2021/03/20 00:18:39;;;;;;;9.08;8.18;;;;;;;7.88;59.45;101714.36;1672448;84;21204;-47
2021/03/20 00:21:08;;;;;;;8.88;7.97;;;;;;;7.82;59.34;101714.33;1660109;84;21573;-43
2021/03/20 00:23:36;;;;;;;8.48;7.67;;;;;;;7.73;59.39;101708.25;1666841;84;21189;-42
2021/03/20 00:26:06;;;;;;;8.78;7.97;;;;;;;7.68;59.70;101709.52;1673404;84;21617;-49
2021/03/20 00:28:34;;;;;;;10.82;8.28;;;;;;;7.63;59.69;101703.86;1670675;84;21181;-48
2021/03/20 00:31:06;;;;;;;8.98;8.03;;;;;;;7.59;59.79;101701.69;1660251;85;21702;-46
2021/03/20 00:33:34;;;;;;;10.40;9.40;;;;;;;7.57;59.92;101705.99;1662459;85;21192;-46
2021/03/20 00:36:03;;;;;;;9.18;8.28;;;;;;;7.58;59.95;101706.87;1672462;84;21621;-46
2021/03/20 00:38:31;;;;;;;9.20;8.30;;;;;;;7.61;59.96;101706.45;1672318;84;21148;-43
2021/03/20 00:40:59;;;;;;;10.55;9.45;;;;;;;7.60;59.62;101707.32;1672129;84;21217;-48
2021/03/20 00:43:27;;;;;;;10.35;9.35;;;;;;;7.57;59.69;101703.41;1672345;84;21192;-42
2021/03/20 00:45:55;;;;;;;9.95;8.95;;;;;;;7.54;59.67;101698.22;1658358;84;21228;-48
2021/03/20 00:48:30;;;;;;;9.85;8.88;;;;;;;7.49;59.69;101701.20;1672712;84;21188;-44
2021/03/20 00:51:05;;;;;;;10.23;9.00;;;;;;;7.49;59.96;101701.63;1811385;79;22840;-47
2021/03/20 00:53:33;;;;;;;10.28;9.28;;;;;;;7.45;60.21;101696.86;1779938;80;21270;-47
2021/03/20 00:56:01;;;;;;;10.48;9.45;;;;;;;7.48;60.02;101697.31;1776995;80;21306;-47
2021/03/20 00:58:38;;;;;;;8.95;8.15;;;;;;;7.48;59.97;101694.27;1775347;80;21148;-42
2021/03/20 01:01:16;;;;;;;8.78;7.87;;;;;;;7.47;59.75;101697.73;1722233;83;21202;-43
2021/03/20 01:03:51;;;;;;;8.83;8.03;;;;;;;7.44;59.68;101700.30;1814774;79;23036;-46
2021/03/20 01:06:25;;;;;;;7.83;7.05;;;;;;;7.36;60.00;101705.86;1782901;80;21292;-49
2021/03/20 01:08:54;;;;;;;8.30;7.47;;;;;;;7.35;60.20;101710.61;1783815;80;21182;-49
2021/03/20 01:11:24;;;;;;;8.25;7.45;;;;;;;7.31;60.27;101716.62;1784251;80;21156;-43
2021/03/20 01:13:54;;;;;;;7.97;7.17;;;;;;;7.30;60.40;101714.88;1701316;81;21193;-44
2021/03/20 01:16:24;;;;;;;8.43;7.53;;;;;;;7.31;60.47;101725.27;1745692;81;21189;-43
2021/03/20 01:18:54;;;;;;;7.83;6.42;;;;;;;7.35;60.42;101723.56;1741234;81;21600;-48
2021/03/20 01:21:22;;;;;;;6.60;5.97;;;;;;;7.40;60.22;101729.62;1751264;81;21185;-50
2021/03/20 01:23:51;;;;;;;6.97;6.22;;;;;;;7.44;60.14;101736.55;1713484;83;21306;-47
2021/03/20 01:26:19;;;;;;;7.40;6.70;;;;;;;7.46;60.05;101737.42;1726029;83;21583;-46
2021/03/20 01:28:48;;;;;;;7.08;6.37;;;;;;;7.51;59.93;101735.74;1723667;83;21168;-43
2021/03/20 01:31:16;;;;;;;7.58;6.25;;;;;;;7.53;59.66;101739.20;1730393;83;21193;-49
2021/03/20 01:33:44;;;;;;;7.50;6.80;;;;;;;7.55;59.78;101734.91;1733719;82;21167;-44
2021/03/20 01:36:13;;;;;;;7.22;5.95;;;;;;;7.63;59.73;101742.29;1745526;81;21165;-46
2021/03/20 01:38:41;;;;;;;7.12;6.40;;;;;;;7.70;59.52;101735.00;1725347;83;21320;-48
2021/03/20 01:41:15;;;;;;;7.78;6.83;;;;;;;7.77;59.21;101741.93;1747180;81;21278;-45
2021/03/20 01:43:44;;;;;;;7.92;7.12;;;;;;;7.81;58.95;101744.97;1750131;81;21203;-46
2021/03/20 01:46:53;;;;;;;7.83;6.80;;;;;;;7.82;58.73;101742.84;1756888;81;21189;-42
2021/03/20 01:49:35;;;;;;;9.18;6.65;;;;;;;7.81;58.48;101738.50;1713630;83;21590;-47
2021/03/20 01:52:25;;;;;;;6.80;6.05;;;;;;;7.84;58.39;101747.59;1771557;79;22914;-48
2021/03/20 01:55:13;;;;;;;6.97;6.33;;;;;;;7.80;58.36;101748.86;1725404;82;21117;-42
2021/03/20 01:57:46;;;;;;;7.25;6.55;;;;;;;7.79;58.22;101754.46;1746082;82;21168;-50
2021/03/20 02:00:31;;;;;;;7.30;6.53;;;;;;;7.81;58.21;101751.45;1807676;79;22908;-47
2021/03/20 02:03:02;;;;;;;8.45;7.58;;;;;;;7.76;58.19;101758.77;1773966;80;21180;-49
2021/03/20 02:05:31;;;;;;;7.97;7.15;;;;;;;7.72;58.22;101755.73;1776908;80;21159;-48
2021/03/20 02:08:01;;;;;;;7.60;6.90;;;;;;;7.70;58.24;101763.92;1776718;80;21124;-49
2021/03/20 02:10:32;;;;;;;7.92;7.10;;;;;;;7.69;58.31;101766.94;1780336;80;21147;-43
2021/03/20 02:13:25;;;;;;;7.72;6.92;;;;;;;7.69;58.30;101763.05;1781652;80;21152;-43
2021/03/20 02:15:57;;;;;;;8.03;7.08;;;;;;;7.68;58.17;101765.22;1671294;85;21353;-44
2021/03/20 02:18:48;;;;;;;8.15;6.83;;;;;;;7.70;58.19;101760.03;1771528;79;22932;-47
2021/03/20 02:21:35;;;;;;;13.18;9.25;;;;;;;7.62;58.19;101760.00;1737163;81;21541;-47
2021/03/20 02:24:46;;;;;;;17.70;11.88;;;;;;;7.57;58.29;101752.61;1735588;82;21181;-50
2021/03/20 02:27:47;;;;;;;15.55;10.88;;;;;;;7.52;58.35;101759.50;1738009;81;21581;-43
2021/03/20 02:30:53;;;;;;;12.03;9.30;;;;;;;7.48;58.47;101756.42;1740631;82;21164;-41
2021/03/20 02:33:35;;;;;;;7.97;7.17;;;;;;;7.49;58.50;101765.95;1727767;82;21334;-43
2021/03/20 02:36:25;;;;;;;8.43;7.53;;;;;;;7.48;58.40;101764.20;1734426;82;21160;-44
2021/03/20 02:38:59;;;;;;;10.50;8.40;;;;;;;7.45;58.44;101773.25;1661304;85;21330;-50
2021/03/20 02:41:58;;;;;;;8.65;7.22;;;;;;;7.41;58.33;101774.09;1661307;86;21617;-47
2021/03/20 02:44:45;;;;;;;12.33;7.97;;;;;;;7.37;58.45;101770.62;1658140;85;21231;-46
2021/03/20 02:47:16;;;;;;;10.25;7.85;;;;;;;7.34;58.41;101772.30;1661328;86;21604;-46
2021/03/20 02:49:56;;;;;;;9.98;8.43;;;;;;;7.31;58.38;101771.00;1661732;86;21270;-42
2021/03/20 02:52:52;;;;;;;8.80;7.65;;;;;;;7.36;58.25;101773.17;1768285;79;22752;-48
2021/03/20 02:55:33;;;;;;;9.60;7.53;;;;;;;7.29;58.11;101767.53;1740075;82;21160;-49
2021/03/20 02:58:09;;;;;;;8.47;7.57;;;;;;;7.23;58.06;101777.39;1739286;82;21141;-47
2021/03/20 03:00:45;;;;;;;8.68;7.67;;;;;;;7.19;58.09;101773.49;1656849;86;21644;-43
2021/03/20 03:03:14;;;;;;;8.30;7.40;;;;;;;7.15;58.27;101775.62;1630977;87;21216;-44
2021/03/20 03:05:56;;;;;;;7.60;6.83;;;;;;;7.12;58.40;101779.45;1658849;86;21211;-43
2021/03/20 03:08:39;;;;;;;7.90;7.08;;;;;;;7.15;58.34;101777.75;1810146;77;22881;-44
2021/03/20 03:11:13;;;;;;;7.72;6.92;;;;;;;7.10;58.36;101782.46;1786622;78;21199;-43
2021/03/20 03:13:51;;;;;;;7.60;6.30;;;;;;;7.09;58.23;101784.62;1820830;78;21572;-43
2021/03/20 03:16:26;;;;;;;7.85;6.85;;;;;;;6.83;58.84;101785.66;1792962;78;21128;-48
2021/03/20 03:19:00;;;;;;;7.00;6.28;;;;;;;6.73;59.17;101777.80;1806611;78;21128;-47
2021/03/20 03:21:31;;;;;;;7.25;6.22;;;;;;;6.67;59.02;101784.20;1802390;78;21155;-43
2021/03/20 03:23:59;;;;;;;8.25;6.33;;;;;;;6.60;59.12;101781.97;1801907;78;21112;-43
2021/03/20 03:26:34;;;;;;;7.17;6.47;;;;;;;6.56;59.02;101784.08;1797797;78;21172;-42
2021/03/20 03:29:10;;;;;;;7.12;6.28;;;;;;;6.51;59.01;101792.23;1802298;78;21612;-50
2021/03/20 03:31:49;;;;;;;9.40;6.53;;;;;;;6.47;59.08;101791.30;1772531;80;21203;-44
2021/03/20 03:34:23;;;;;;;7.10;6.35;;;;;;;6.47;59.03;101791.75;1765633;80;21195;-44
2021/03/20 03:37:08;;;;;;;6.62;6.00;;;;;;;6.52;59.15;101796.12;1774216;79;23089;-42
2021/03/20 03:39:53;;;;;;;6.78;5.75;;;;;;;6.49;59.20;101803.82;1734841;82;21294;-49
2021/03/20 03:42:21;;;;;;;6.55;5.85;;;;;;;6.52;59.05;101806.45;1734406;82;21301;-50
2021/03/20 03:44:51;;;;;;;7.10;6.40;;;;;;;6.55;58.93;101803.05;1736908;82;21161;-50
2021/03/20 03:47:23;;;;;;;7.08;5.90;;;;;;;6.57;58.85;101804.77;1732263;82;21165;-46
2021/03/20 03:49:58;;;;;;;8.70;7.03;;;;;;;6.48;59.12;101808.98;1731233;82;21176;-44
2021/03/20 03:52:26;;;;;;;8.58;7.25;;;;;;;6.49;58.89;101805.11;1661071;85;21365;-47
2021/03/20 03:54:54;;;;;;;9.25;6.87;;;;;;;6.50;58.91;101797.81;1660811;86;21170;-47
2021/03/20 03:58:00;;;;;;;9.25;7.08;;;;;;;6.44;59.09;101801.62;1656428;86;21328;-42
2021/03/20 04:00:39;;;;;;;7.42;6.03;;;;;;;6.43;59.07;101802.46;1660979;86;21631;-47
2021/03/20 04:03:57;;;;;;;7.30;6.12;;;;;;;6.47;58.72;101806.81;1654492;86;21412;-49
2021/03/20 04:07:13;;;;;;;7.03;6.15;;;;;;;6.45;58.73;101805.94;1653837;86;21678;-47
2021/03/20 04:10:14;;;;;;;7.35;6.53;;;;;;;6.47;58.84;101814.57;1665389;86;21484;-41
2021/03/20 04:12:48;;;;;;;7.58;6.78;;;;;;;6.39;58.75;101817.50;1657018;86;21196;-49
2021/03/20 04:15:35;;;;;;;8.95;6.25;;;;;;;6.31;58.92;101817.83;1654064;85;21128;-47
2021/03/20 04:18:17;;;;;;;6.50;5.75;;;;;;;6.28;59.21;101825.56;1658053;86;21204;-46
2021/03/20 04:21:29;;;;;;;8.90;6.40;;;;;;;6.31;59.45;101825.58;1775594;79;22925;-47
2021/03/20 04:24:25;;;;;;;9.10;6.70;;;;;;;6.29;59.23;101825.98;1740545;82;21568;-47
2021/03/20 04:27:17;;;;;;;7.47;6.37;;;;;;;6.31;59.13;101835.92;1738035;82;21176;-44
2021/03/20 04:30:06;;;;;;;8.08;6.83;;;;;;;6.31;59.18;101835.92;1738257;82;21137;-48
2021/03/20 04:32:42;;;;;;;8.40;5.55;;;;;;;6.34;59.17;101845.02;1737959;82;21144;-43
2021/03/20 04:35:26;;;;;;;8.95;6.72;;;;;;;6.39;59.08;101848.52;1810319;79;23373;-42
2021/03/20 04:37:54;;;;;;;8.15;6.47;;;;;;;6.34;59.12;101863.13;1749678;80;21620;-42
2021/03/20 04:40:29;;;;;;;8.40;7.37;;;;;;;6.38;59.02;101859.72;1707751;83;21128;-46
2021/03/20 04:43:03;;;;;;;10.13;7.03;;;;;;;6.42;58.89;101858.91;1771499;79;22936;-50
2021/03/20 04:45:34;;;;;;;7.87;7.03;;;;;;;6.46;58.75;101865.86;1727018;83;21191;-50
2021/03/20 04:48:05;;;;;;;;;;;;;;;6.43;58.89;101868.39;1743618;82;21129;-43
2021/03/20 04:50:33;;;;;;;8.05;6.78;;;;;;;6.45;58.91;101869.27;1713138;82;20440;-48
2021/03/20 04:53:01;;;;;;;8.00;6.95;;;;;;;6.46;58.60;101871.02;1739015;80;21172;-47
2021/03/20 04:55:29;;;;;;;7.92;7.08;;;;;;;6.47;58.09;101867.58;1740228;82;21200;-42
2021/03/20 04:58:42;;;;;;;8.80;6.80;;;;;;;6.42;58.23;101867.08;1740984;82;21287;-44
2021/03/20 05:01:28;;;;;;;9.03;7.40;;;;;;;6.36;58.23;101866.59;1736395;82;21156;-44
2021/03/20 05:04:02;;;;;;;8.43;6.87;;;;;;;6.26;58.23;101875.49;1741288;82;21167;-48
2021/03/20 05:06:31;;;;;;;8.50;7.05;;;;;;;6.12;58.89;101879.16;1736713;82;21172;-48
2021/03/20 05:09:05;;;;;;;15.08;7.22;;;;;;;6.28;58.72;101873.38;1742334;82;21337;-47
2021/03/20 05:11:57;;;;;;;10.23;7.10;;;;;;;6.42;58.55;101885.18;1741081;82;21148;-47
2021/03/20 05:14:48;;;;;;;8.05;6.80;;;;;;;6.42;58.49;101886.06;1684795;84;21223;-47
2021/03/20 05:17:18;;;;;;;8.08;6.65;;;;;;;6.50;58.48;101890.90;1690718;84;21167;-42
2021/03/20 05:19:46;;;;;;;11.70;7.70;;;;;;;6.58;58.30;101897.03;1706702;84;21187;-43
2021/03/20 05:22:24;;;;;;;9.40;6.75;;;;;;;6.63;58.15;101898.80;1706062;84;21392;-45
2021/03/20 05:24:59;;;;;;;7.90;6.87;;;;;;;6.72;57.91;101896.34;1770478;79;23457;-49
2021/03/20 05:27:30;;;;;;;8.58;6.97;;;;;;;6.52;58.29;101904.72;1739564;82;21148;-43
2021/03/20 05:29:58;;;;;;;7.85;6.67;;;;;;;6.57;58.26;101917.71;1738041;82;21175;-42
2021/03/20 05:32:31;;;;;;;9.13;7.50;;;;;;;6.63;58.14;101911.32;1738219;81;21140;-47
2021/03/20 05:35:01;;;;;;;8.30;7.50;;;;;;;6.69;57.98;101918.28;1701030;83;21215;-50
2021/03/20 05:37:32;;;;;;;10.08;6.83;;;;;;;6.72;57.85;101928.23;1703742;83;21152;-42
2021/03/20 05:40:00;;;;;;;7.65;6.65;;;;;;;6.76;57.56;101921.40;1703973;83;21620;-47
2021/03/20 05:42:43;;;;;;;11.38;7.30;;;;;;;6.77;57.47;101925.70;1703142;83;21168;-47
2021/03/20 05:45:22;;;;;;;8.25;7.42;;;;;;;6.76;57.38;101923.98;1699598;83;21152;-46
2021/03/20 05:48:16;;;;;;;8.48;6.90;;;;;;;6.79;57.39;101919.70;1810060;79;22847;-49
2021/03/20 05:51:17;;;;;;;10.18;7.65;;;;;;;6.78;57.59;101924.87;1722169;83;21307;-46
2021/03/20 05:54:16;;;;;;;10.00;6.83;;;;;;;6.84;57.56;101923.65;1710866;83;21182;-46
2021/03/20 05:57:04;;;;;;;7.72;6.78;;;;;;;6.95;57.39;101920.74;1771493;79;22678;-48
2021/03/20 06:00:09;;;;;;;10.75;7.17;;;;;;;6.94;56.91;101928.08;1702902;82;21321;-45
2021/03/20 06:03:25;;;;;;;10.30;6.60;;;;;;;7.01;56.65;101931.16;1684463;83;21315;-43
2021/03/20 06:05:57;;;;;;;8.40;6.78;;;;;;;7.07;56.53;101930.81;1705762;83;21173;-42
2021/03/20 06:08:58;;;;;;;8.53;7.20;;;;;;;7.21;57.19;101930.98;1707604;83;21191;-42
2021/03/20 06:11:56;;;;;;;7.15;6.35;;;;;;;7.59;56.34;101936.09;1771070;79;22913;-47
2021/03/20 06:15:06;;;;;;;12.10;9.30;;;;;;;7.86;55.93;101931.16;1727733;82;21668;-50
2021/03/20 06:18:22;;;;;;;6.95;6.25;;;;;;;8.37;55.00;101927.20;1735110;82;21172;-43
2021/03/20 06:20:56;;;;;;;9.73;6.72;;;;;;;8.98;53.67;101934.44;1730043;82;21156;-47
2021/03/20 06:24:03;;;;;;;6.97;6.08;;;;;;;9.36;51.92;101928.90;1741313;82;21133;-47
2021/03/20 06:29:19;;;;;;;7.00;5.95;;;;;;;9.70;50.95;101934.59;1810144;79;22901;-46
2021/03/20 06:31:52;;;;;;;7.35;5.85;;;;;;;9.96;49.68;101933.70;1777371;80;21148;-48
2021/03/20 06:34:39;;;;;;;6.12;5.53;;;;;;;10.10;48.83;101939.78;1696501;84;21137;-43
2021/03/20 06:37:30;;;;;;;7.08;6.08;;;;;;;10.16;49.13;101938.50;1771436;79;23392;-44
2021/03/20 06:40:06;;;;;;;8.18;6.03;;;;;;;10.23;49.14;101938.91;1739881;82;21286;-44
2021/03/20 06:42:37;;;;;;;5.85;5.25;;;;;;;10.35;47.81;101942.78;1731848;82;21179;-48
2021/03/20 06:45:29;;;;;;;5.90;5.25;;;;;;;10.35;46.91;101946.69;1734721;82;21140;-46
2021/03/20 06:48:22;;;;;;;7.17;6.13;;;;;;;10.34;46.11;101944.97;1756510;79;28138;-48
2021/03/20 06:50:53;;;;;;;5.90;5.30;;;;;;;10.26;46.68;101951.92;1727826;82;21382;-44
2021/03/20 06:53:48;;;;;;;6.20;5.60;;;;;;;10.26;46.41;101957.12;1741251;82;21152;-43
2021/03/20 06:56:17;;;;;;;5.78;4.78;;;;;;;10.15;46.29;101958.86;1653154;86;21168;-47
2021/03/20 06:58:45;;;;;;;5.15;4.65;;;;;;;9.97;46.59;101965.34;1658487;86;21180;-44
2021/03/20 07:01:39;;;;;;;6.15;5.33;;;;;;;9.79;47.27;101959.27;1658537;86;21347;-43
2021/03/20 07:05:01;;;;;;;5.92;5.33;;;;;;;9.77;47.50;101957.52;1806416;78;23007;-40
2021/03/20 07:08:01;;;;;;;6.40;5.10;;;;;;;9.66;46.47;101953.64;1779053;80;21139;-46
2021/03/20 07:10:37;;;;;;;5.90;5.03;;;;;;;9.58;46.82;101954.04;1760738;80;21151;-46
2021/03/20 07:13:16;;;;;;;5.47;4.97;;;;;;;9.51;46.40;101959.23;1791814;80;21176;-48
2021/03/20 07:15:47;;;;;;;6.72;4.92;;;;;;;9.45;46.47;101962.70;1779530;80;21203;-41
2021/03/20 07:18:31;;;;;;;6.75;5.67;;;;;;;9.39;47.02;101966.59;1728955;80;21147;-45
2021/03/20 07:21:00;;;;;;;5.65;5.15;;;;;;;9.31;47.16;101960.51;1750769;81;21403;-42
2021/03/20 07:23:28;;;;;;;8.48;5.40;;;;;;;9.20;48.05;101967.39;1734032;81;21179;-50
2021/03/20 07:26:08;;;;;;;7.70;5.33;;;;;;;9.09;48.27;101971.67;1753231;81;21207;-47
2021/03/20 07:28:37;;;;;;;8.60;7.15;;;;;;;8.90;48.26;101978.52;1740240;82;21711;-45
2021/03/20 07:31:10;;;;;;;6.80;5.90;;;;;;;8.79;48.97;101985.82;1721124;81;21199;-44
2021/03/20 07:33:44;;;;;;;6.72;6.03;;;;;;;8.73;48.20;101992.28;1746318;81;22660;-41
2021/03/20 07:36:29;;;;;;;6.87;6.17;;;;;;;8.60;48.59;101987.88;1731314;81;21200;-46
2021/03/20 07:39:20;;;;;;;8.28;6.30;;;;;;;8.46;48.64;101989.52;1735561;81;21275;-45
2021/03/20 07:42:00;;;;;;;6.53;5.92;;;;;;;8.32;48.91;101987.27;1735428;81;21310;-45
2021/03/20 07:44:51;;;;;;;7.28;6.17;;;;;;;8.22;48.91;101981.97;1733411;81;21371;-43
2021/03/20 07:47:20;;;;;;;7.33;6.08;;;;;;;8.13;48.28;101988.40;1734527;81;21227;-43
2021/03/20 07:49:48;;;;;;;6.55;5.85;;;;;;;7.98;48.56;101988.27;1734583;81;21167;-44
2021/03/20 07:52:27;;;;;;;6.90;6.15;;;;;;;7.89;49.02;101993.36;1727534;81;21243;-46
2021/03/20 07:55:20;;;;;;;8.63;6.60;;;;;;;7.87;49.64;101988.59;1740219;81;21219;-45
2021/03/20 07:57:57;;;;;;;7.20;5.97;;;;;;;7.88;49.84;101986.88;1753615;80;21162;-42
2021/03/20 08:00:36;;;;;;;6.70;6.00;;;;;;;7.86;50.21;101992.47;1740426;81;21199;-46
2021/03/20 08:03:23;;;;;;;6.60;5.85;;;;;;;7.84;50.17;101995.06;1745798;81;21849;-47
2021/03/20 08:06:13;;;;;;;7.05;6.15;;;;;;;7.93;50.19;101993.82;1813367;79;22711;-43
2021/03/20 08:08:42;;;;;;;7.05;5.62;;;;;;;7.94;49.88;102002.05;1681450;85;21150;-46
2021/03/20 08:11:32;;;;;;;7.70;5.72;;;;;;;8.09;49.81;102009.09;1679796;85;21183;-45
2021/03/20 08:14:24;;;;;;;7.20;5.90;;;;;;;8.04;49.72;102005.16;1687622;85;21182;-47
2021/03/20 08:17:00;;;;;;;9.95;6.15;;;;;;;8.12;49.62;102007.39;1802492;78;22227;-43
2021/03/20 08:19:30;;;;;;;6.58;5.50;;;;;;;8.38;48.72;102006.76;1770373;80;21139;-43
2021/03/20 08:22:37;;;;;;;6.80;6.10;;;;;;;8.36;48.66;102013.66;1779114;80;21171;-41
2021/03/20 08:25:20;;;;;;;6.78;5.83;;;;;;;8.16;49.28;102014.33;1763813;80;21566;-46
2021/03/20 08:28:28;;;;;;;6.40;5.80;;;;;;;8.26;49.14;102010.14;1778359;80;21552;-46
2021/03/20 08:31:35;;;;;;;6.58;5.87;;;;;;;8.18;49.06;102015.21;1699893;83;21369;-47
2021/03/20 08:34:17;;;;;;;8.88;6.25;;;;;;;8.17;48.96;102010.02;1698362;83;21916;-46
2021/03/20 08:37:09;;;;;;;8.80;6.08;;;;;;;8.24;49.25;102015.25;1699631;83;21722;-47
2021/03/20 08:40:08;;;;;;;8.15;5.85;;;;;;;8.28;48.72;102014.03;1696700;83;21164;-46
2021/03/20 08:43:17;;;;;;;7.22;5.83;;;;;;;8.36;48.27;102013.66;1765973;79;22935;-46
2021/03/20 08:46:27;;;;;;;9.15;5.35;;;;;;;8.34;47.33;102001.11;1742725;82;21644;-47
2021/03/20 08:49:33;;;;;;;7.35;5.95;;;;;;;8.38;47.40;102006.33;1806771;79;22937;-44
2021/03/20 08:52:28;;;;;;;7.50;6.55;;;;;;;8.24;48.09;102013.96;1766726;80;21149;-45
2021/03/20 08:55:34;;;;;;;6.72;5.58;;;;;;;8.22;47.93;102015.67;1728154;83;21232;-44
2021/03/20 08:58:33;;;;;;;7.20;5.67;;;;;;;8.23;48.24;102020.44;1710494;83;21116;-42
2021/03/20 09:01:26;;;;;;;7.53;6.53;;;;;;;8.27;47.65;102028.72;1725435;83;21341;-46
2021/03/20 09:04:01;;;;;;;6.42;5.75;;;;;;;8.29;48.32;102027.42;1651294;86;21138;-44
2021/03/20 09:06:40;;;;;;;7.35;5.92;;;;;;;8.41;48.25;102027.55;1711854;83;21215;-42
2021/03/20 09:09:45;;;;;;;8.80;6.10;;;;;;;8.48;47.16;102016.33;1758017;79;22220;-48
2021/03/20 09:12:33;;;;;;;6.97;5.47;;;;;;;8.69;47.07;102017.36;1728799;82;21140;-48
2021/03/20 09:15:06;;;;;;;6.00;5.15;;;;;;;8.76;47.05;102013.05;1664165;85;21139;-43
2021/03/20 09:17:38;;;;;;;6.58;5.95;;;;;;;8.82;47.32;102013.95;1691897;84;21634;-49
2021/03/20 09:20:47;;;;;;;6.55;5.92;;;;;;;8.89;46.73;102011.84;1687176;84;21160;-47
2021/03/20 09:23:32;;;;;;;6.20;5.60;;;;;;;8.93;46.45;102014.01;1687848;84;21155;-46
2021/03/20 09:26:04;;;;;;;7.25;6.08;;;;;;;9.00;46.12;102013.19;1683020;84;21285;-45
2021/03/20 09:28:49;;;;;;;6.67;5.78;;;;;;;9.03;46.20;102015.78;1690762;84;21608;-47
2021/03/20 09:31:36;;;;;;;7.65;6.22;;;;;;;9.01;45.49;102018.80;1803443;79;22992;-47
2021/03/20 09:34:38;;;;;;;7.22;5.40;;;;;;;8.93;45.74;102014.01;1784695;80;21132;-42
2021/03/20 09:37:20;;;;;;;8.63;6.03;;;;;;;8.90;45.96;102014.02;1783074;80;21136;-47
2021/03/20 09:39:57;;;;;;;8.80;7.10;;;;;;;8.85;46.40;102007.91;1783959;80;21140;-46
2021/03/20 09:42:32;;;;;;;6.95;6.22;;;;;;;8.52;46.99;102015.49;1775868;80;21605;-48
2021/03/20 09:45:11;;;;;;;6.53;5.72;;;;;;;8.44;47.50;102010.69;1781199;80;21147;-44
2021/03/20 09:47:49;;;;;;;7.50;6.35;;;;;;;8.72;46.80;102008.69;1710342;83;21184;-43
2021/03/20 09:50:23;;;;;;;7.17;5.90;;;;;;;8.80;46.72;102008.30;1702426;84;21629;-42
2021/03/20 09:53:11;;;;;;;6.75;6.05;;;;;;;8.93;46.41;102007.09;1712680;83;21294;-45
2021/03/20 09:55:48;;;;;;;6.65;5.83;;;;;;;9.05;45.52;101997.19;1702259;84;21334;-43
2021/03/20 09:58:24;;;;;;;7.90;6.00;;;;;;;9.05;45.59;102002.38;1706526;84;21204;-48
2021/03/20 10:00:58;;;;;;;6.72;6.03;;;;;;;9.07;45.62;102001.95;1706527;84;21609;-41
2021/03/20 10:03:41;;;;;;;8.28;6.08;;;;;;;9.10;45.30;102001.98;1702203;84;21208;-42
2021/03/20 10:06:30;;;;;;;6.62;5.92;;;;;;;9.17;46.10;102002.87;1710107;83;21722;-43
2021/03/20 10:09:11;;;;;;;6.17;5.58;;;;;;;9.22;45.39;102002.02;1702035;84;21796;-42
2021/03/20 10:11:54;;;;;;;8.55;6.65;;;;;;;9.21;45.41;102014.55;1699593;84;21329;-47
2021/03/20 10:14:30;;;;;;;11.83;7.08;;;;;;;9.16;44.94;102001.12;1703112;84;21585;-42
2021/03/20 10:17:20;;;;;;;7.08;6.37;;;;;;;8.96;45.75;102008.84;1707035;84;21156;-48
2021/03/20 10:19:56;;;;;;;7.90;6.30;;;;;;;9.12;45.75;102005.45;1702963;84;21609;-46
2021/03/20 10:22:37;;;;;;;7.15;6.08;;;;;;;9.23;45.74;101995.11;1809858;79;22937;-44
2021/03/20 10:25:07;;;;;;;7.83;5.62;;;;;;;9.22;45.09;101994.23;1784722;80;21131;-45
2021/03/20 10:27:38;;;;;;;7.17;5.92;;;;;;;9.26;45.29;101997.70;1768036;80;21108;-44
2021/03/20 10:30:24;;;;;;;10.00;5.60;;;;;;;9.28;44.89;101997.27;1735977;81;21161;-47
2021/03/20 10:33:15;;;;;;;7.03;5.55;;;;;;;9.31;45.19;101997.30;1719593;82;21168;-46
2021/03/20 10:35:43;;;;;;;6.30;5.70;;;;;;;9.35;44.09;101988.22;1721700;82;21331;-42
2021/03/20 10:38:28;;;;;;;6.42;5.65;;;;;;;9.40;44.64;102000.77;1734781;82;21576;-46
2021/03/20 10:41:07;;;;;;;6.87;5.55;;;;;;;9.42;43.42;102001.64;1702513;82;21285;-48
2021/03/20 10:43:44;;;;;;;7.03;6.10;;;;;;;9.39;43.61;101995.16;1670083;85;21644;-45
2021/03/20 10:46:31;;;;;;;5.85;5.33;;;;;;;9.46;43.70;102002.09;1777000;79;23146;-43
2021/03/20 10:49:00;;;;;;;;;;;;;;;9.40;43.05;102007.27;1739836;82;21132;-44
2021/03/20 10:51:38;;;;;;;6.62;5.72;;;;;;;9.36;43.49;101998.16;1709295;82;20409;-42
2021/03/20 10:54:36;;;;;;;7.87;5.12;;;;;;;9.30;43.35;101994.24;1734790;82;21306;-47
2021/03/20 10:57:09;;;;;;;5.97;4.90;;;;;;;9.34;44.00;101992.97;1734979;82;21121;-43
2021/03/20 10:59:45;;;;;;;6.40;5.75;;;;;;;9.47;43.93;101989.55;1810815;79;22917;-48
2021/03/20 11:02:30;;;;;;;8.18;5.35;;;;;;;9.52;43.43;101997.36;1724446;82;21282;-46
2021/03/20 11:05:24;;;;;;;8.15;5.25;;;;;;;9.61;43.86;101998.23;1721030;83;21594;-42
2021/03/20 11:08:12;;;;;;;7.10;6.12;;;;;;;9.65;42.50;102002.58;1724455;83;21558;-46
2021/03/20 11:10:43;;;;;;;7.28;6.00;;;;;;;9.64;42.36;102009.92;1711795;83;21141;-48
2021/03/20 11:13:37;;;;;;;5.78;5.28;;;;;;;9.67;42.03;102002.57;1691940;83;21198;-47
2021/03/20 11:16:16;;;;;;;6.55;5.87;;;;;;;9.75;41.49;102008.22;1803597;79;22915;-46
2021/03/20 11:18:51;;;;;;;6.10;5.50;;;;;;;9.74;41.82;102013.00;1707298;82;21158;-47
2021/03/20 11:21:36;;;;;;;6.53;5.85;;;;;;;9.77;41.57;102007.78;1709959;82;21576;-47
2021/03/20 11:24:10;;;;;;;8.10;5.83;;;;;;;9.78;41.10;102012.56;1718601;82;21288;-43
2021/03/20 11:26:46;;;;;;;8.20;6.75;;;;;;;9.80;41.76;102012.13;1811587;79;22915;-44
2021/03/20 11:29:21;;;;;;;9.70;6.00;;;;;;;9.80;41.90;102001.31;1783855;80;21136;-43
2021/03/20 11:32:02;;;;;;;6.55;5.60;;;;;;;9.88;42.19;102005.63;1778245;80;21731;-44
2021/03/20 11:34:39;;;;;;;6.20;5.60;;;;;;;9.94;41.87;102006.93;1767412;80;21164;-42
2021/03/20 11:37:11;;;;;;;6.03;5.42;;;;;;;9.98;40.95;101999.56;1783518;80;21143;-47
2021/03/20 11:39:39;;;;;;;6.80;5.47;;;;;;;9.97;40.92;101999.15;1709366;83;21156;-46
2021/03/20 11:42:10;;;;;;;6.08;5.37;;;;;;;9.94;41.08;102001.31;1689526;84;21180;-46
2021/03/20 11:44:45;;;;;;;6.12;5.53;;;;;;;9.94;40.95;102000.44;1705713;83;21155;-42
2021/03/20 11:47:27;;;;;;;7.45;5.20;;;;;;;9.95;40.73;101996.98;1698438;83;21203;-44
2021/03/20 11:49:57;;;;;;;5.80;5.20;;;;;;;10.00;40.83;102006.94;1712023;83;21148;-48
2021/03/20 11:52:30;;;;;;;8.08;6.92;;;;;;;10.05;40.22;102003.91;1705590;83;21832;-45
2021/03/20 11:55:08;;;;;;;8.28;5.58;;;;;;;10.09;41.26;102000.45;1763855;79;22932;-45
2021/03/20 11:57:38;;;;;;;5.78;5.17;;;;;;;10.01;40.09;102006.08;1667714;86;21630;-46
2021/03/20 12:00:42;;;;;;;6.03;5.42;;;;;;;9.97;40.67;101996.13;1657011;84;21147;-48
2021/03/20 12:03:24;;;;;;;6.47;5.58;;;;;;;10.03;40.31;101990.05;1658549;86;21592;-49
2021/03/20 12:06:24;;;;;;;6.33;5.70;;;;;;;10.11;40.52;101997.45;1806950;79;22944;-42
2021/03/20 12:08:55;;;;;;;6.22;5.45;;;;;;;10.10;40.49;101998.30;1766373;80;21140;-41
2021/03/20 12:11:30;;;;;;;6.45;5.42;;;;;;;10.09;39.67;102003.05;1776544;80;21545;-41
2021/03/20 12:13:58;;;;;;;7.70;5.97;;;;;;;10.13;40.10;102003.52;1725816;83;21159;-40
2021/03/20 12:16:41;;;;;;;6.42;5.78;;;;;;;10.19;40.57;102004.81;1725208;83;21616;-45
2021/03/20 12:19:20;;;;;;;7.58;6.20;;;;;;;10.24;40.48;102000.48;1724359;83;21215;-47
2021/03/20 12:22:01;;;;;;;11.33;7.75;;;;;;;10.30;40.82;102006.56;1728844;83;21610;-43
2021/03/20 12:24:35;;;;;;;7.42;6.42;;;;;;;10.37;39.87;102002.19;1715023;83;21332;-44
2021/03/20 12:27:34;;;;;;;7.83;6.62;;;;;;;10.41;39.56;102003.91;1714096;83;21191;-41
2021/03/20 12:30:30;;;;;;;6.28;5.10;;;;;;;10.52;40.05;101999.58;1811680;79;23509;-43
2021/03/20 12:33:17;;;;;;;6.03;5.12;;;;;;;10.52;39.13;102008.69;1763325;80;21155;-44
2021/03/20 12:35:47;;;;;;;6.00;5.35;;;;;;;10.58;40.11;102006.06;1700171;83;21221;-47
2021/03/20 12:38:22;;;;;;;6.70;5.62;;;;;;;10.65;39.21;102009.11;1670008;84;21197;-47